Time;durP1;ratioP1;P1;durP2;ratioP2;P2;SDS_P1;SDS_P2;PMS_P1;PMS_P2;Temp;Humidity;BMP_temperature;BMP_pressure;BME280_temperature;BME280_humidity;BME280_pressure;Samples;Min_cycle;Max_cycle;Signal;HPM_P1;HPM_P2
2022/11/16 00:02:40;;;;;;;84.90;49.83;;;;;;;18.00;70.38;98917.69;4782571;29;20058;-65
2022/11/16 00:05:15;;;;;;;82.53;48.13;;;;;;;18.02;70.55;98918.25;4782074;29;20077;-65
2022/11/16 00:08:08;;;;;;;86.55;50.85;;;;;;;18.17;69.99;98917.56;4775209;30;20532;-65
2022/11/16 00:10:51;;;;;;;90.85;52.95;;;;;;;18.12;69.91;98923.78;4764866;30;20063;-64
2022/11/16 00:13:41;;;;;;;83.45;50.85;;;;;;;18.03;70.25;98917.16;4764239;30;20083;-66
2022/11/16 00:16:26;;;;;;;91.18;50.03;;;;;;;18.06;70.14;98911.22;4779173;30;20062;-65
2022/11/16 00:19:15;;;;;;;85.75;50.42;;;;;;;17.78;71.60;98909.56;4782076;30;20063;-65
2022/11/16 00:21:58;;;;;;;91.78;53.72;;;;;;;17.72;71.69;98910.59;4782260;30;20082;-65
2022/11/16 00:24:52;;;;;;;83.35;51.47;;;;;;;17.61;72.28;98912.38;4762951;30;20056;-65
2022/11/16 00:27:41;;;;;;;87.28;53.05;;;;;;;17.60;72.19;98908.03;4763169;30;20143;-65
2022/11/16 00:30:24;;;;;;;90.88;52.92;;;;;;;17.64;72.41;98903.75;4763563;30;20060;-65
2022/11/16 00:33:15;;;;;;;92.30;54.70;;;;;;;17.72;71.75;98910.59;4712810;30;20518;-66
2022/11/16 00:35:57;;;;;;;95.47;55.28;;;;;;;17.63;72.00;98918.38;4747122;30;20056;-64
2022/11/16 00:38:46;;;;;;;92.35;53.70;;;;;;;17.54;72.77;98918.03;4755096;30;20123;-65
2022/11/16 00:41:28;;;;;;;90.97;55.58;;;;;;;17.49;73.19;98922.56;4764055;30;20056;-65
2022/11/16 00:44:17;;;;;;;90.68;54.60;;;;;;;17.40;73.43;98930.31;4746399;30;20060;-65
2022/11/16 00:46:59;;;;;;;93.13;55.03;;;;;;;17.42;73.52;98930.88;4746660;30;20397;-64
2022/11/16 00:49:48;;;;;;;96.35;55.53;;;;;;;17.42;73.34;98937.16;4762430;30;20059;-65
2022/11/16 00:52:30;;;;;;;102.53;55.63;;;;;;;17.33;73.62;98946.81;4763999;30;20063;-65
2022/11/16 00:55:19;;;;;;;100.13;55.95;;;;;;;17.29;73.58;98940.25;4763975;30;20098;-65
2022/11/16 00:58:03;;;;;;;99.15;58.17;;;;;;;17.27;73.77;98955.13;4747228;30;20058;-64
2022/11/16 01:01:01;;;;;;;92.80;57.30;;;;;;;17.36;72.90;98945.47;4747313;30;20082;-65
2022/11/16 01:03:46;;;;;;;98.18;58.28;;;;;;;17.33;73.08;98949.53;4747701;30;20070;-65
2022/11/16 01:06:36;;;;;;;91.50;53.33;;;;;;;17.33;73.08;98954.09;4747565;30;20060;-65
2022/11/16 01:09:19;;;;;;;97.10;55.42;;;;;;;17.28;73.54;98960.31;4761965;29;20571;-64
2022/11/16 01:12:09;;;;;;;93.03;53.95;;;;;;;17.25;73.74;98966.22;4747383;30;20389;-64
2022/11/16 01:14:53;;;;;;;90.63;55.55;;;;;;;17.26;73.65;98965.16;4770200;30;20054;-65
2022/11/16 01:17:42;;;;;;;91.30;54.28;;;;;;;17.28;73.83;98964.91;4744435;30;20063;-66
2022/11/16 01:20:27;;;;;;;98.07;56.15;;;;;;;17.30;73.57;98969.00;4745262;30;20056;-66
2022/11/16 01:23:23;;;;;;;91.63;56.40;;;;;;;17.19;73.68;98972.66;4741502;30;20094;-65
2022/11/16 01:26:01;;;;;;;96.43;55.22;;;;;;;17.15;73.62;98974.22;4774467;30;20150;-66
2022/11/16 01:28:49;;;;;;;98.50;55.08;;;;;;;17.06;74.06;98973.00;4779102;30;20128;-67
2022/11/16 01:31:44;;;;;;;105.38;55.42;;;;;;;16.96;74.38;98984.53;4762461;30;20059;-65
2022/11/16 01:34:27;;;;;;;90.95;54.05;;;;;;;16.88;74.75;98993.91;4779332;30;20059;-65
2022/11/16 01:37:35;;;;;;;100.32;55.72;;;;;;;16.94;74.57;98989.38;4773639;30;20123;-68
2022/11/16 01:40:27;;;;;;;94.82;54.75;;;;;;;16.86;74.84;98989.81;4767227;30;20062;-65
2022/11/16 01:43:29;;;;;;;100.32;52.13;;;;;;;16.80;75.61;99003.25;4765643;30;20393;-65
2022/11/16 01:46:10;;;;;;;94.05;56.08;;;;;;;16.88;75.03;98990.38;4781034;29;20051;-65
2022/11/16 01:49:24;;;;;;;93.18;54.03;;;;;;;16.80;75.58;98995.13;4765617;30;20056;-65
2022/11/16 01:52:21;;;;;;;100.63;56.22;;;;;;;17.03;74.49;99001.47;4781289;30;20055;-64
2022/11/16 01:55:10;;;;;;;93.93;54.53;;;;;;;17.00;75.03;99010.06;4764555;30;20070;-65
2022/11/16 01:58:24;;;;;;;95.22;55.20;;;;;;;17.02;75.07;99013.34;4779033;29;20423;-64
2022/11/16 02:01:30;;;;;;;93.80;52.97;;;;;;;17.20;74.76;99015.00;4771531;29;20066;-66
2022/11/16 02:04:19;;;;;;;91.30;52.25;;;;;;;17.27;74.30;99023.75;4760538;29;20055;-67
2022/11/16 02:07:10;;;;;;;;;;;;;;;17.33;73.90;99028.19;4766989;30;20144;-65
2022/11/16 02:10:21;;;;;;;92.85;52.33;;;;;;;17.62;73.65;99033.44;4764666;30;20346;-65
2022/11/16 02:13:28;;;;;;;79.05;47.10;;;;;;;18.15;73.52;99040.06;4770526;30;20062;-65
2022/11/16 02:16:19;;;;;;;79.55;48.15;;;;;;;18.73;70.23;99039.50;4759179;30;20051;-65
2022/11/16 02:19:11;;;;;;;67.25;42.35;;;;;;;19.34;68.77;99041.88;4742364;30;20044;-64
2022/11/16 02:22:27;;;;;;;83.93;49.33;;;;;;;19.07;68.05;99050.97;4769960;30;20050;-66
2022/11/16 02:25:32;;;;;;;81.30;47.70;;;;;;;18.93;68.90;99056.00;4777435;30;20058;-64
2022/11/16 02:28:23;;;;;;;64.65;39.38;;;;;;;20.36;65.30;99044.16;4780132;30;20048;-65
2022/11/16 02:31:19;;;;;;;64.65;39.63;;;;;;;21.88;59.97;99059.88;4767875;30;20482;-65
2022/11/16 02:34:11;;;;;;;64.75;39.08;;;;;;;22.25;58.46;99062.16;4769114;30;20063;-65
2022/11/16 02:37:04;;;;;;;70.83;39.33;;;;;;;22.58;57.38;99069.88;4784824;30;20066;-66
2022/11/16 02:39:57;;;;;;;59.47;38.67;;;;;;;22.72;57.05;99070.03;4768811;30;20303;-66
2022/11/16 02:43:03;;;;;;;59.22;37.53;;;;;;;22.92;56.57;99072.63;4767864;30;20083;-65
2022/11/16 02:45:56;;;;;;;64.53;38.88;;;;;;;22.99;56.11;99073.13;4784277;29;20062;-65
2022/11/16 02:48:45;;;;;;;73.18;47.70;;;;;;;22.66;56.40;99074.72;4768454;30;20380;-67
2022/11/16 02:51:34;;;;;;;84.18;48.25;;;;;;;20.99;62.04;99084.06;4783544;30;20120;-65
2022/11/16 02:54:19;;;;;;;93.20;52.58;;;;;;;20.46;65.49;99076.88;4784217;29;20071;-65
2022/11/16 02:57:08;;;;;;;79.35;48.55;;;;;;;20.77;63.11;99082.44;4783842;29;20059;-67
2022/11/16 02:59:54;;;;;;;99.00;55.53;;;;;;;20.37;63.88;99089.44;4768065;30;20535;-66
2022/11/16 03:03:12;;;;;;;83.00;53.20;;;;;;;20.43;63.99;99091.06;4760028;30;20047;-64
2022/11/16 03:06:11;;;;;;;91.47;55.78;;;;;;;20.20;64.02;99099.75;4752869;30;20785;-65
2022/11/16 03:09:12;;;;;;;109.07;66.03;;;;;;;19.28;66.18;99114.50;4767717;30;20065;-65
2022/11/16 03:12:13;;;;;;;117.00;66.35;;;;;;;19.80;66.80;99114.84;4767285;30;20055;-65
2022/11/16 03:14:54;;;;;;;118.35;65.40;;;;;;;20.28;63.71;99107.41;4775561;29;20043;-64
2022/11/16 03:17:48;;;;;;;115.18;65.68;;;;;;;20.83;62.57;99118.72;4770810;29;20058;-65
2022/11/16 03:20:35;;;;;;;115.30;63.78;;;;;;;20.24;65.45;99122.66;4768045;30;20748;-65
2022/11/16 03:23:32;;;;;;;107.85;60.28;;;;;;;20.51;66.38;99125.16;4780975;29;20741;-65
2022/11/16 03:26:29;;;;;;;86.38;53.05;;;;;;;20.82;65.09;99134.25;4762456;30;20059;-66
2022/11/16 03:29:27;;;;;;;102.70;62.08;;;;;;;21.07;64.34;99133.44;4766929;30;20162;-65
2022/11/16 03:32:43;;;;;;;105.13;64.60;;;;;;;20.74;64.43;99134.78;4766923;29;20478;-65
2022/11/16 03:35:38;;;;;;;105.10;60.58;;;;;;;21.21;62.13;99139.19;4748841;30;20070;-65
2022/11/16 03:38:29;;;;;;;91.63;57.33;;;;;;;21.49;62.61;99145.19;4761420;30;20055;-67
2022/11/16 03:41:15;;;;;;;97.95;54.13;;;;;;;21.73;60.39;99145.44;4764265;30;20633;-66
2022/11/16 03:44:07;;;;;;;94.25;52.70;;;;;;;21.60;59.50;99137.81;4772123;30;20392;-63
2022/11/16 03:46:56;;;;;;;90.45;50.40;;;;;;;22.97;56.68;99149.22;4765946;30;20059;-66
2022/11/16 03:49:46;;;;;;;76.78;47.03;;;;;;;23.46;54.89;99147.47;4784308;29;20124;-65
2022/11/16 03:52:30;;;;;;;67.05;44.08;;;;;;;23.91;54.38;99156.38;4766437;29;20051;-66
2022/11/16 03:55:20;;;;;;;73.63;39.85;;;;;;;23.89;52.32;99158.56;4766133;29;20169;-66
2022/11/16 03:58:03;;;;;;;70.18;38.60;;;;;;;23.98;51.94;99156.84;4758930;30;20669;-66
2022/11/16 04:01:00;;;;;;;63.30;40.40;;;;;;;24.32;53.25;99158.59;4752400;30;20047;-66
2022/11/16 04:03:35;;;;;;;68.63;41.40;;;;;;;24.70;51.56;99155.91;4766660;30;20051;-66
2022/11/16 04:25:22;;;;;;;47.53;27.85;;;;;;;25.59;47.88;99163.31;4708511;30;20047;-63
2022/11/16 04:28:15;;;;;;;52.95;28.52;;;;;;;25.46;47.43;99166.84;4781306;30;20567;-61
2022/11/16 04:37:49;;;;;;;51.60;30.40;;;;;;;25.00;46.80;99181.31;4756647;30;20047;-62
2022/11/16 04:40:40;;;;;;;57.88;31.45;;;;;;;24.69;47.45;99181.75;4775116;30;20063;-63
2022/11/16 04:43:23;;;;;;;49.63;30.77;;;;;;;25.11;46.58;99185.53;4751123;30;20063;-65
2022/11/16 04:49:20;;;;;;;52.17;30.75;;;;;;;25.44;45.65;99182.81;4774162;30;20891;-64
2022/11/16 04:52:09;;;;;;;44.65;30.02;;;;;;;24.95;46.27;99189.59;4773652;30;20056;-65
2022/11/16 04:54:52;;;;;;;53.27;28.50;;;;;;;24.77;47.68;99188.50;4763673;29;20055;-66
2022/11/16 04:57:42;;;;;;;40.78;25.75;;;;;;;24.62;45.02;99197.75;4758105;30;20166;-66
2022/11/16 05:00:24;;;;;;;35.47;22.75;;;;;;;25.14;43.40;99187.66;4774133;30;20052;-65
2022/11/16 05:03:14;;;;;;;47.88;23.88;;;;;;;24.98;46.62;99184.34;4776369;30;20130;-68
2022/11/16 05:05:56;;;;;;;36.72;24.52;;;;;;;24.60;43.85;99186.25;4775640;30;20055;-64
2022/11/16 05:08:46;;;;;;;41.70;25.20;;;;;;;24.95;44.61;99181.38;4757409;30;20044;-67
2022/11/16 05:11:28;;;;;;;46.77;28.07;;;;;;;24.07;45.02;99183.59;4767842;30;20127;-65
2022/11/16 05:14:30;;;;;;;43.83;28.30;;;;;;;23.95;46.03;99181.28;4733622;27;9036347;-64
2022/11/16 05:17:22;;;;;;;44.17;27.13;;;;;;;24.33;45.68;99179.44;5011092;28;20156;-61
2022/11/16 05:26:36;;;;;;;41.30;27.88;;;;;;;24.21;45.79;99181.81;4983036;28;20495;-64
2022/11/16 05:29:18;;;;;;;45.83;27.27;;;;;;;24.31;44.80;99187.16;5006017;28;20358;-64
2022/11/16 05:32:10;;;;;;;41.92;23.80;;;;;;;24.97;44.56;99179.13;5007231;28;20050;-66
2022/11/16 05:34:52;;;;;;;37.53;23.75;;;;;;;25.14;43.73;99182.16;5007962;28;20052;-63
2022/11/16 05:37:42;;;;;;;38.90;22.02;;;;;;;24.74;43.08;99180.84;5019772;28;20053;-64
2022/11/16 05:40:31;;;;;;;35.97;21.58;;;;;;;24.69;42.99;99180.94;5011658;28;20057;-63
2022/11/16 05:43:14;;;;;;;33.63;19.87;;;;;;;25.32;44.82;99171.50;5041911;28;20045;-66
2022/11/16 05:46:26;;;;;;;35.97;19.67;;;;;;;24.78;43.70;99173.66;5038432;28;20399;-66
2022/11/16 05:49:08;;;;;;;26.35;19.27;;;;;;;24.65;43.50;99174.38;5017497;28;20045;-65
2022/11/16 05:51:56;;;;;;;32.72;19.55;;;;;;;25.10;42.78;99164.66;5024318;28;20498;-63
2022/11/16 05:54:48;;;;;;;36.97;19.48;;;;;;;25.06;43.30;99169.13;4673788;28;10000218;-64
2022/11/16 05:57:30;;;;;;;31.25;18.20;;;;;;;24.85;42.81;99165.88;5004356;28;20053;-64
2022/11/16 06:00:20;;;;;;;23.95;15.60;;;;;;;25.57;43.76;99162.78;5020153;28;20045;-64
2022/11/16 06:03:02;;;;;;;24.45;15.02;;;;;;;25.09;41.49;99146.56;5028309;28;20048;-63
2022/11/16 06:05:52;;;;;;;26.08;14.70;;;;;;;25.11;41.82;99149.00;5007610;28;20049;-63
2022/11/16 06:08:36;;;;;;;20.25;13.98;;;;;;;25.42;41.34;99154.81;5029532;28;20053;-61
2022/11/16 06:11:31;;;;;;;23.35;13.85;;;;;;;25.51;41.28;99150.28;5030956;28;20047;-62
2022/11/16 06:14:16;;;;;;;23.67;14.95;;;;;;;25.26;42.52;99145.19;5005253;28;20076;-62
2022/11/16 06:17:05;;;;;;;23.60;15.82;;;;;;;25.85;40.88;99140.81;5008241;28;20049;-63
2022/11/16 06:19:53;;;;;;;31.95;16.92;;;;;;;25.32;42.06;99133.03;5034730;28;20052;-62
2022/11/16 06:22:44;;;;;;;30.30;17.70;;;;;;;25.16;41.67;99122.25;5007109;28;20046;-60
2022/11/16 06:25:26;;;;;;;24.95;15.05;;;;;;;25.63;42.03;99118.75;4988904;28;20060;-62
2022/11/16 06:28:16;;;;;;;27.50;15.15;;;;;;;25.28;42.05;99118.25;5003266;28;20073;-63
2022/11/16 06:30:57;;;;;;;29.73;15.93;;;;;;;25.61;42.81;99112.72;5005852;28;20532;-62
2022/11/16 06:33:48;;;;;;;24.85;15.98;;;;;;;25.80;41.58;99105.19;5010276;28;20053;-64
2022/11/16 06:36:33;;;;;;;25.85;16.77;;;;;;;25.81;41.25;99106.81;5027062;28;20049;-62
2022/11/16 06:39:23;;;;;;;24.73;16.30;;;;;;;25.65;41.34;99113.75;5014049;28;20131;-61
2022/11/16 06:42:05;;;;;;;25.55;14.27;;;;;;;25.62;39.85;99106.09;5019089;28;20067;-61
2022/11/16 06:44:55;;;;;;;23.80;14.48;;;;;;;25.51;40.79;99099.97;5027709;28;20144;-63
2022/11/16 06:47:42;;;;;;;28.38;15.00;;;;;;;25.76;40.81;99094.00;5009036;28;20053;-61
2022/11/16 06:50:33;;;;;;;29.60;16.55;;;;;;;25.52;41.10;99091.44;5008339;28;20049;-61
2022/11/16 06:53:16;;;;;;;21.90;13.73;;;;;;;25.94;42.73;99089.53;5009961;28;20049;-61
2022/11/16 06:56:11;;;;;;;26.20;16.17;;;;;;;25.85;41.09;99088.59;5010266;28;20045;-63
2022/11/16 06:58:58;;;;;;;26.38;15.50;;;;;;;26.08;42.38;99083.19;5026710;28;20045;-61
2022/11/16 07:01:49;;;;;;;35.35;15.95;;;;;;;25.53;41.33;99081.28;5006595;28;20077;-61
2022/11/16 07:04:33;;;;;;;23.92;15.15;;;;;;;25.62;43.84;99079.41;5009479;28;20054;-61
2022/11/16 07:07:23;;;;;;;20.25;14.38;;;;;;;25.50;41.62;99071.69;5006101;28;20644;-62
2022/11/16 07:10:05;;;;;;;20.83;13.63;;;;;;;24.91;41.86;99079.56;4999386;28;20737;-61
2022/11/16 07:13:00;;;;;;;23.90;14.13;;;;;;;25.54;40.28;99069.16;5012730;28;20048;-61
2022/11/16 07:15:38;;;;;;;19.85;14.48;;;;;;;25.54;41.27;99064.44;5015862;28;20156;-61
2022/11/16 07:18:33;;;;;;;21.25;12.77;;;;;;;25.56;40.94;99062.22;5043290;28;20106;-60
2022/11/16 07:21:13;;;;;;;22.58;13.45;;;;;;;25.72;42.26;99057.25;5025332;28;20422;-63
2022/11/16 07:24:03;;;;;;;19.15;13.25;;;;;;;25.74;40.40;99051.44;5025191;28;20162;-62
2022/11/16 07:26:53;;;;;;;22.00;11.82;;;;;;;25.70;40.12;99058.66;5023247;28;20041;-63
2022/11/16 07:29:39;;;;;;;22.30;12.77;;;;;;;25.59;40.23;99056.13;5021724;28;20053;-64
2022/11/16 07:32:49;;;;;;;20.70;12.13;;;;;;;25.33;41.21;99049.47;5050493;28;20043;-62
2022/11/16 07:35:49;;;;;;;17.65;11.90;;;;;;;25.54;39.66;99050.72;5044382;28;20068;-63
2022/11/16 07:38:40;;;;;;;24.05;13.10;;;;;;;25.11;39.84;99030.91;5026148;28;20109;-64
2022/11/16 07:41:22;;;;;;;21.20;12.23;;;;;;;25.37;41.11;99047.75;5040527;28;20779;-63
2022/11/16 07:44:20;;;;;;;19.23;13.00;;;;;;;25.42;40.20;99028.44;5008905;28;20503;-64
2022/11/16 07:47:13;;;;;;;24.37;13.00;;;;;;;25.43;39.63;99026.50;5026462;28;20040;-63
2022/11/16 07:50:02;;;;;;;25.45;12.10;;;;;;;25.46;41.35;99028.63;5028299;28;20048;-63
2022/11/16 07:52:46;;;;;;;22.85;12.93;;;;;;;25.63;41.43;99028.03;5027740;28;20063;-63
2022/11/16 07:55:36;;;;;;;22.85;13.55;;;;;;;25.48;40.75;99016.22;5010978;28;20673;-63
2022/11/16 07:58:20;;;;;;;;;;;;;;;25.57;41.06;99014.38;5002875;28;20042;-63
2022/11/16 08:01:11;;;;;;;17.88;12.85;;;;;;;25.62;40.51;99015.41;5000276;28;19928;-63
2022/11/16 08:03:54;;;;;;;22.17;14.25;;;;;;;25.93;39.89;99005.41;5028777;28;20045;-64
2022/11/16 08:06:43;;;;;;;18.67;13.07;;;;;;;25.62;37.96;99015.41;5028044;28;20060;-62
2022/11/16 08:09:27;;;;;;;19.33;12.90;;;;;;;25.58;38.95;99012.44;5027983;28;20056;-63
2022/11/16 08:12:21;;;;;;;22.50;15.20;;;;;;;25.42;39.77;99003.72;5027810;28;20381;-63
2022/11/16 08:15:03;;;;;;;26.73;14.45;;;;;;;25.47;40.46;99003.63;5028729;28;20041;-63
2022/11/16 08:17:52;;;;;;;23.38;14.20;;;;;;;25.67;40.24;98996.06;5021437;28;20057;-63
2022/11/16 08:20:35;;;;;;;28.58;15.35;;;;;;;25.55;40.49;98994.66;5021690;28;20227;-63
2022/11/16 08:23:24;;;;;;;28.48;15.18;;;;;;;25.17;42.41;98992.06;4988183;28;20045;-64
2022/11/16 08:26:13;;;;;;;22.10;15.10;;;;;;;24.86;41.87;98989.06;5006838;28;20049;-62
2022/11/16 08:29:14;;;;;;;31.27;15.68;;;;;;;25.21;42.96;98984.03;4983634;28;20091;-63
2022/11/16 08:32:04;;;;;;;25.42;15.10;;;;;;;24.95;42.04;98987.25;4999004;28;20492;-63
2022/11/16 08:34:53;;;;;;;24.75;14.57;;;;;;;25.31;41.16;98994.03;4998639;28;20049;-62
2022/11/16 08:37:34;;;;;;;21.80;13.45;;;;;;;25.46;40.51;98973.69;4989858;28;20149;-63
2022/11/16 08:40:24;;;;;;;25.23;15.82;;;;;;;25.21;41.60;98979.34;5023475;28;20057;-64
2022/11/16 08:43:05;;;;;;;29.95;15.98;;;;;;;25.23;42.38;98981.00;5015799;28;20045;-62
2022/11/16 08:45:57;;;;;;;26.25;16.20;;;;;;;25.02;42.05;98970.38;5000672;28;20057;-63
2022/11/16 08:48:38;;;;;;;;;;;;;;;25.48;41.44;98966.75;4996741;28;20057;-64
2022/11/16 08:51:30;;;;;;;27.90;15.93;;;;;;;25.14;41.99;98973.44;5001789;28;20038;-63
2022/11/16 08:54:11;;;;;;;21.83;14.63;;;;;;;25.24;41.94;98968.91;5011094;28;20052;-63
2022/11/16 08:57:02;;;;;;;25.80;16.45;;;;;;;25.24;41.36;98966.16;4999885;28;20578;-64
2022/11/16 08:59:45;;;;;;;;;;;;;;;25.08;40.72;98960.13;4999150;28;20057;-63
2022/11/16 09:02:34;;;;;;;26.52;15.82;;;;;;;25.34;41.57;98963.22;5013141;28;20286;-64
2022/11/16 09:05:16;;;;;;;24.42;16.88;;;;;;;25.02;41.65;98962.16;5018136;28;20064;-63
2022/11/16 09:08:05;;;;;;;24.95;18.73;;;;;;;25.02;41.85;98953.91;5016226;28;20041;-63
2022/11/16 09:10:46;;;;;;;41.60;20.17;;;;;;;24.99;42.88;98951.75;4993137;28;20049;-62
2022/11/16 09:13:43;;;;;;;29.40;19.33;;;;;;;25.07;42.90;98948.31;5027289;28;20064;-63
2022/11/16 09:16:19;;;;;;;30.83;19.45;;;;;;;25.08;43.50;98947.19;5036698;28;20485;-64
2022/11/16 09:19:09;;;;;;;31.92;18.67;;;;;;;25.16;42.42;98946.47;5029648;28;20076;-63
2022/11/16 09:21:52;;;;;;;30.00;19.33;;;;;;;25.18;41.43;98949.75;5030387;28;20550;-63
2022/11/16 09:24:40;;;;;;;24.70;15.88;;;;;;;25.55;40.95;98947.13;5035896;28;20052;-64
2022/11/16 09:27:30;;;;;;;31.42;15.93;;;;;;;25.21;41.60;98951.88;5024330;28;20153;-64
2022/11/16 09:30:12;;;;;;;30.63;18.85;;;;;;;24.86;41.14;98952.56;5034695;28;20045;-64
2022/11/16 09:33:04;;;;;;;26.17;17.95;;;;;;;24.80;41.25;98940.84;5041868;28;20044;-64
2022/11/16 09:35:52;;;;;;;33.97;19.55;;;;;;;24.85;41.70;98949.00;5043481;28;20625;-63
2022/11/16 09:38:35;;;;;;;36.22;20.58;;;;;;;24.70;42.13;98941.84;5043532;28;20041;-63
2022/11/16 09:42:12;;;;;;;31.45;19.35;;;;;;;25.23;41.52;98940.63;5041838;28;20045;-64
2022/11/16 09:45:39;;;;;;;35.05;21.73;;;;;;;25.17;41.62;98937.13;5044572;28;20056;-64
2022/11/16 09:48:28;;;;;;;42.43;22.10;;;;;;;25.34;42.21;98927.50;5040382;28;20235;-63
2022/11/16 09:51:22;;;;;;;40.72;23.73;;;;;;;25.23;42.38;98937.06;5025018;28;20057;-63
2022/11/16 09:54:26;;;;;;;39.65;26.23;;;;;;;25.06;43.17;98938.44;5025093;28;20477;-63
2022/11/16 09:57:22;;;;;;;38.03;24.48;;;;;;;25.24;42.59;98938.69;5037322;28;20052;-64
2022/11/16 10:00:16;;;;;;;39.42;25.90;;;;;;;24.93;42.47;98931.00;5045759;28;20447;-64
2022/11/16 10:03:18;;;;;;;38.15;24.58;;;;;;;25.34;42.83;98922.00;5039893;28;20045;-64
2022/11/16 10:06:03;;;;;;;;;;;;;;;25.23;41.50;98926.09;5028522;28;20060;-67
2022/11/16 10:08:56;;;;;;;31.70;17.60;;;;;;;24.99;41.15;98929.78;5038999;28;20686;-68
2022/11/16 10:12:04;;;;;;;22.92;13.50;;;;;;;24.97;40.69;98929.28;5044143;28;20053;-67
2022/11/16 10:15:11;;;;;;;23.05;14.27;;;;;;;24.59;41.47;98935.75;5046798;28;20138;-67
2022/11/16 10:18:18;;;;;;;23.05;14.07;;;;;;;25.02;40.43;98921.75;5045227;28;20072;-65
2022/11/16 10:21:07;;;;;;;23.42;14.35;;;;;;;25.25;41.29;98927.38;5046075;28;20049;-67
2022/11/16 10:24:18;;;;;;;23.20;15.20;;;;;;;24.94;41.82;98933.47;5041138;28;20456;-61
2022/11/16 10:27:37;;;;;;;23.67;13.82;;;;;;;24.92;42.36;98929.41;5029097;28;20146;-62
2022/11/16 10:30:26;;;;;;;18.00;12.75;;;;;;;25.07;42.74;98937.34;5037420;28;20495;-65
2022/11/16 10:33:33;;;;;;;25.38;13.98;;;;;;;25.15;42.45;98938.56;5040084;28;20045;-63
2022/11/16 10:36:32;;;;;;;26.13;15.18;;;;;;;24.88;41.47;98936.59;5045886;28;20059;-65
2022/11/16 10:39:13;;;;;;;24.00;14.23;;;;;;;25.02;42.09;98937.44;5045470;28;20552;-65
2022/11/16 10:42:10;;;;;;;23.40;14.85;;;;;;;25.09;42.91;98935.09;5041839;28;20045;-62
2022/11/16 10:45:22;;;;;;;25.38;13.65;;;;;;;25.14;43.09;98934.97;5046633;28;20548;-61
2022/11/16 10:48:24;;;;;;;23.88;14.57;;;;;;;24.63;43.09;98941.44;5042440;28;20057;-63
2022/11/16 10:51:01;;;;;;;32.38;16.90;;;;;;;24.86;43.25;98944.31;5038989;28;20041;-59
2022/11/16 10:53:57;;;;;;;25.23;15.60;;;;;;;25.18;43.80;98944.25;5033493;28;20041;-60
2022/11/16 10:56:39;;;;;;;25.77;16.05;;;;;;;24.91;43.68;98941.47;5041535;28;20053;-59
2022/11/16 10:59:48;;;;;;;27.42;16.67;;;;;;;24.88;43.60;98947.56;5039643;28;20045;-59
2022/11/16 11:02:31;;;;;;;23.65;13.73;;;;;;;25.00;45.14;98950.66;5037074;28;20067;-60
2022/11/16 11:05:20;;;;;;;33.38;17.25;;;;;;;25.14;44.24;98943.22;5036274;28;20053;-58
2022/11/16 11:08:16;;;;;;;32.60;17.55;;;;;;;24.87;44.43;98941.28;5034101;28;20056;-60
2022/11/16 11:14:21;;;;;;;23.98;14.00;;;;;;;24.96;45.14;98946.88;5035192;28;20056;-60
2022/11/16 11:17:11;;;;;;;21.25;13.50;;;;;;;25.01;45.66;98941.28;5036406;28;20103;-62
2022/11/16 11:20:07;;;;;;;24.25;16.75;;;;;;;24.93;45.72;98950.22;5039920;28;20147;-64
2022/11/16 11:22:58;;;;;;;20.35;13.77;;;;;;;25.01;45.95;98946.78;5037312;28;20049;-63
2022/11/16 11:25:44;;;;;;;24.27;13.98;;;;;;;24.86;45.51;98938.81;5028644;28;20052;-63
2022/11/16 11:28:37;;;;;;;25.52;16.55;;;;;;;24.76;46.27;98951.66;5024961;28;20044;-60
2022/11/16 11:31:50;;;;;;;23.60;13.73;;;;;;;24.99;46.29;98946.25;5029424;28;20148;-61
2022/11/16 11:34:44;;;;;;;31.92;18.23;;;;;;;24.43;45.57;98954.34;5040133;28;20115;-60
2022/11/16 11:37:45;;;;;;;31.15;17.02;;;;;;;24.35;47.24;98951.50;5038482;28;20540;-60
2022/11/16 11:40:33;;;;;;;26.80;16.35;;;;;;;24.50;45.81;98948.50;5035786;28;20049;-59
2022/11/16 11:43:28;;;;;;;25.30;17.17;;;;;;;24.39;46.95;98945.09;5017198;28;20496;-59
2022/11/16 11:46:27;;;;;;;24.40;16.17;;;;;;;24.27;47.88;98955.72;5042859;28;20049;-61
2022/11/16 11:49:42;;;;;;;29.90;18.20;;;;;;;24.13;48.29;98952.09;5022638;28;20057;-60
2022/11/16 11:53:05;;;;;;;38.53;17.77;;;;;;;23.89;48.39;98957.69;5037420;28;20105;-58
2022/11/16 11:56:01;;;;;;;27.13;16.20;;;;;;;23.89;48.32;98955.75;5019760;28;20044;-62
2022/11/16 11:58:50;;;;;;;27.55;16.08;;;;;;;23.68;49.44;98968.88;5031828;28;20779;-60
2022/11/16 12:02:01;;;;;;;29.95;16.45;;;;;;;23.65;49.87;98967.56;5032785;28;20913;-62
2022/11/16 12:05:34;;;;;;;32.33;17.60;;;;;;;23.31;49.80;98966.88;5029718;28;20233;-61
2022/11/16 12:08:28;;;;;;;24.00;15.68;;;;;;;23.15;51.61;98969.78;5022740;28;20053;-60
2022/11/16 12:11:25;;;;;;;29.50;16.50;;;;;;;23.05;51.51;98972.63;5028976;28;20346;-61
2022/11/16 12:14:23;;;;;;;32.35;17.13;;;;;;;22.93;52.71;98980.38;5038126;28;20103;-64
2022/11/16 12:17:24;;;;;;;31.00;18.92;;;;;;;22.99;52.37;98971.03;5012757;28;20045;-65
2022/11/16 12:20:10;;;;;;;34.28;17.85;;;;;;;22.98;52.61;98980.34;5029920;28;20053;-58
2022/11/16 12:23:40;;;;;;;28.40;17.55;;;;;;;22.73;53.25;98982.22;5039282;28;20138;-64
2022/11/16 12:26:53;;;;;;;32.42;19.05;;;;;;;22.61;53.38;98990.00;5038699;28;20593;-61
2022/11/16 12:29:39;;;;;;;38.60;18.98;;;;;;;22.50;53.04;98986.50;5026151;28;20404;-62
2022/11/16 12:32:56;;;;;;;36.00;20.58;;;;;;;22.34;54.42;98990.50;5031820;28;20536;-62
2022/11/16 12:35:45;;;;;;;38.53;21.63;;;;;;;22.18;55.14;98984.25;5033875;28;20056;-61
2022/11/16 12:38:48;;;;;;;37.67;21.40;;;;;;;22.08;55.76;98990.63;5025004;28;20130;-62
2022/11/16 12:41:54;;;;;;;41.15;23.40;;;;;;;22.04;55.87;98998.56;5026670;28;20053;-63
2022/11/16 12:44:55;;;;;;;43.63;23.63;;;;;;;21.99;56.21;98992.31;5029852;28;20050;-67
2022/11/16 12:48:07;;;;;;;42.95;23.95;;;;;;;21.97;56.36;98995.31;5037718;28;20468;-64
2022/11/16 12:51:20;;;;;;;47.75;25.08;;;;;;;21.85;56.75;98998.38;5016966;28;20051;-65
2022/11/16 12:54:32;;;;;;;46.97;25.67;;;;;;;21.82;56.97;98998.97;5036535;28;20132;-65
2022/11/16 12:57:40;;;;;;;57.83;25.10;;;;;;;21.77;57.34;98998.19;5033497;28;20053;-65
2022/11/16 13:00:29;;;;;;;52.10;28.05;;;;;;;21.69;57.26;99005.84;5036194;28;20041;-66
2022/11/16 13:03:20;;;;;;;57.42;28.23;;;;;;;21.70;57.91;99007.47;5029670;28;20054;-66
2022/11/16 13:06:15;;;;;;;61.10;29.05;;;;;;;21.50;57.64;99007.56;5040694;28;20052;-63
2022/11/16 13:09:20;;;;;;;56.78;29.00;;;;;;;21.38;58.95;99023.41;5045962;28;20131;-65
2022/11/16 13:12:16;;;;;;;51.03;28.73;;;;;;;21.43;58.22;99017.94;5044629;28;20045;-64
2022/11/16 13:15:01;;;;;;;53.00;32.13;;;;;;;21.51;58.11;99031.03;5061033;28;20044;-61
2022/11/16 13:18:00;;;;;;;59.47;29.95;;;;;;;21.41;59.05;99025.59;5045971;28;20053;-61
2022/11/16 13:21:05;;;;;;;62.25;29.33;;;;;;;21.37;59.13;99032.69;5037502;28;20075;-60
2022/11/16 13:24:01;;;;;;;56.90;29.52;;;;;;;21.29;59.66;99039.53;5035145;28;20053;-60
2022/11/16 13:27:16;;;;;;;58.58;30.70;;;;;;;21.30;59.86;99039.28;5038549;28;20555;-62
2022/11/16 13:30:19;;;;;;;52.55;26.92;;;;;;;21.34;61.62;99041.44;5045286;28;20090;-59
2022/11/16 13:33:38;;;;;;;46.63;24.05;;;;;;;22.43;58.82;99044.28;5040469;28;20127;-60
2022/11/16 13:36:43;;;;;;;46.03;25.35;;;;;;;22.58;58.34;99053.47;5034929;28;20734;-61
2022/11/16 13:40:08;;;;;;;41.92;23.55;;;;;;;23.07;56.77;99055.28;5038664;28;20123;-60
2022/11/16 13:43:09;;;;;;;57.17;31.05;;;;;;;22.17;57.22;99060.00;5038276;28;20078;-60
2022/11/16 13:45:58;;;;;;;62.08;29.95;;;;;;;21.69;58.62;99049.56;5037473;28;20049;-62
2022/11/16 13:48:52;;;;;;;59.05;30.73;;;;;;;21.31;59.89;99048.28;5010814;28;20062;-59
2022/11/16 13:51:54;;;;;;;59.95;31.73;;;;;;;21.17;60.72;99053.50;5036517;28;20068;-60
2022/11/16 13:55:13;;;;;;;64.53;33.15;;;;;;;21.10;60.25;99050.22;5032410;28;20064;-60